Terminal Aerodrome Forecast
Issued by NWS

Home | Current Version | Previous Version | Graphics & Text | Print | Product List | Glossary On
Versions: 1 2 3 4 5 6 7 8 9 10 11 12 13 14 15 16 17 18 19 20 21 22 23 24 25 26 27 28 29 30 31 32 33 34 35 36 37 38 39 40 41 42
427
FTUS43 KGRB 051739 AAC
TAFRHI
TAF AMD
KRHI 051739Z 0518/0618 17006KT P6SM BKN010
     FM052300 18008KT P6SM OVC007
     FM060900 20007KT 4SM -SN OVC003
     FM061600 23008KT 5SM -SHSN OVC007=

USA.gov is the U.S. government's official web portal to all federal, state and local government web resources and services.